sensor_id;sensor_type;location;lat;lon;timestamp;pressure;altitude;pressure_sealevel;temperature;humidity
13434;BME280;6789;47.678;9.158;2023-04-28T00:04:32;96650.31;;;12.31;91.77
13434;BME280;6789;47.678;9.158;2023-04-28T00:09:24;96641.91;;;12.29;92.64
13434;BME280;6789;47.678;9.158;2023-04-28T00:14:16;96638.00;;;12.31;93.27
13434;BME280;6789;47.678;9.158;2023-04-28T00:19:08;96635.59;;;12.30;93.75
13434;BME280;6789;47.678;9.158;2023-04-28T00:24:00;96629.94;;;12.21;94.25
13434;BME280;6789;47.678;9.158;2023-04-28T00:28:51;96628.22;;;12.15;94.16
13434;BME280;6789;47.678;9.158;2023-04-28T00:33:43;96630.56;;;12.12;94.56
13434;BME280;6789;47.678;9.158;2023-04-28T00:38:35;96622.09;;;12.10;93.24
13434;BME280;6789;47.678;9.158;2023-04-28T00:43:27;96613.19;;;12.11;92.80
13434;BME280;6789;47.678;9.158;2023-04-28T00:48:20;96613.66;;;12.08;92.48
13434;BME280;6789;47.678;9.158;2023-04-28T00:53:13;96602.56;;;12.06;93.57
13434;BME280;6789;47.678;9.158;2023-04-28T00:58:06;96602.81;;;12.05;93.37
13434;BME280;6789;47.678;9.158;2023-04-28T01:02:58;96604.88;;;12.03;93.71
13434;BME280;6789;47.678;9.158;2023-04-28T01:07:51;96600.41;;;12.03;94.74
13434;BME280;6789;47.678;9.158;2023-04-28T01:12:42;96594.91;;;12.05;94.88
13434;BME280;6789;47.678;9.158;2023-04-28T01:17:34;96595.72;;;12.05;94.58
13434;BME280;6789;47.678;9.158;2023-04-28T01:22:26;96599.09;;;12.17;94.33
13434;BME280;6789;47.678;9.158;2023-04-28T01:27:18;96598.53;;;12.15;94.71
13434;BME280;6789;47.678;9.158;2023-04-28T01:32:09;96599.31;;;12.15;94.16
13434;BME280;6789;47.678;9.158;2023-04-28T01:37:01;96591.66;;;12.14;95.43
13434;BME280;6789;47.678;9.158;2023-04-28T01:41:53;96592.16;;;12.11;96.07
13434;BME280;6789;47.678;9.158;2023-04-28T01:46:45;96581.97;;;12.14;95.96
13434;BME280;6789;47.678;9.158;2023-04-28T01:51:36;96586.41;;;12.14;95.50
13434;BME280;6789;47.678;9.158;2023-04-28T01:56:28;96594.06;;;12.15;96.56
13434;BME280;6789;47.678;9.158;2023-04-28T02:01:20;96584.28;;;12.11;96.61
13434;BME280;6789;47.678;9.158;2023-04-28T02:06:11;96597.75;;;12.14;96.56
13434;BME280;6789;47.678;9.158;2023-04-28T02:11:03;96601.47;;;12.18;96.21
13434;BME280;6789;47.678;9.158;2023-04-28T02:15:55;96606.25;;;12.05;97.66
13434;BME280;6789;47.678;9.158;2023-04-28T02:20:47;96606.09;;;12.11;99.65
13434;BME280;6789;47.678;9.158;2023-04-28T02:25:38;96603.94;;;12.09;100.00
13434;BME280;6789;47.678;9.158;2023-04-28T02:30:30;96620.97;;;12.06;100.00
13434;BME280;6789;47.678;9.158;2023-04-28T02:35:22;96637.66;;;12.00;100.00
13434;BME280;6789;47.678;9.158;2023-04-28T02:40:14;96646.47;;;12.06;100.00
13434;BME280;6789;47.678;9.158;2023-04-28T02:45:06;96631.28;;;11.96;100.00
13434;BME280;6789;47.678;9.158;2023-04-28T02:49:58;96628.84;;;11.78;100.00
13434;BME280;6789;47.678;9.158;2023-04-28T02:54:50;96623.59;;;11.78;100.00
13434;BME280;6789;47.678;9.158;2023-04-28T02:59:45;96620.22;;;11.66;100.00
13434;BME280;6789;47.678;9.158;2023-04-28T03:04:36;96606.75;;;11.63;100.00
13434;BME280;6789;47.678;9.158;2023-04-28T03:09:28;96621.75;;;11.79;100.00
13434;BME280;6789;47.678;9.158;2023-04-28T03:14:20;96613.34;;;11.65;100.00
13434;BME280;6789;47.678;9.158;2023-04-28T03:19:11;96613.50;;;11.59;100.00
13434;BME280;6789;47.678;9.158;2023-04-28T03:24:03;96613.19;;;11.55;100.00
13434;BME280;6789;47.678;9.158;2023-04-28T03:28:56;96628.94;;;11.55;100.00
13434;BME280;6789;47.678;9.158;2023-04-28T03:33:48;96630.28;;;11.58;100.00
13434;BME280;6789;47.678;9.158;2023-04-28T03:38:40;96654.19;;;11.84;100.00
13434;BME280;6789;47.678;9.158;2023-04-28T03:43:32;96634.84;;;11.62;100.00
13434;BME280;6789;47.678;9.158;2023-04-28T03:48:26;96614.44;;;11.41;100.00
13434;BME280;6789;47.678;9.158;2023-04-28T03:53:18;96618.56;;;11.38;100.00
13434;BME280;6789;47.678;9.158;2023-04-28T03:58:09;96601.66;;;11.34;100.00
13434;BME280;6789;47.678;9.158;2023-04-28T04:03:01;96610.19;;;11.40;100.00
13434;BME280;6789;47.678;9.158;2023-04-28T04:08:09;96606.91;;;11.34;100.00
13434;BME280;6789;47.678;9.158;2023-04-28T04:13:02;96600.88;;;11.22;100.00
13434;BME280;6789;47.678;9.158;2023-04-28T04:17:54;96580.91;;;11.21;100.00
13434;BME280;6789;47.678;9.158;2023-04-28T04:22:52;96567.44;;;11.17;100.00
13434;BME280;6789;47.678;9.158;2023-04-28T04:27:44;96567.78;;;11.21;100.00
13434;BME280;6789;47.678;9.158;2023-04-28T04:32:36;96567.44;;;11.17;100.00
13434;BME280;6789;47.678;9.158;2023-04-28T04:37:28;96571.22;;;11.10;100.00
13434;BME280;6789;47.678;9.158;2023-04-28T04:42:20;96568.59;;;11.10;100.00
13434;BME280;6789;47.678;9.158;2023-04-28T04:47:20;96577.75;;;11.07;100.00
13434;BME280;6789;47.678;9.158;2023-04-28T04:52:13;96576.69;;;11.20;100.00
13434;BME280;6789;47.678;9.158;2023-04-28T04:57:11;96567.25;;;11.07;100.00
13434;BME280;6789;47.678;9.158;2023-04-28T05:02:17;96555.63;;;11.03;100.00
13434;BME280;6789;47.678;9.158;2023-04-28T05:07:33;96536.16;;;10.88;100.00
13434;BME280;6789;47.678;9.158;2023-04-28T05:12:40;96539.88;;;10.92;100.00
13434;BME280;6789;47.678;9.158;2023-04-28T05:17:45;96532.94;;;10.86;100.00
13434;BME280;6789;47.678;9.158;2023-04-28T05:22:44;96543.44;;;10.97;100.00
13434;BME280;6789;47.678;9.158;2023-04-28T05:27:49;96537.03;;;11.05;100.00
13434;BME280;6789;47.678;9.158;2023-04-28T05:32:43;96538.81;;;11.16;100.00
13434;BME280;6789;47.678;9.158;2023-04-28T05:37:35;96525.88;;;11.26;100.00
13434;BME280;6789;47.678;9.158;2023-04-28T05:42:38;96512.91;;;11.19;100.00
13434;BME280;6789;47.678;9.158;2023-04-28T05:47:56;96508.06;;;11.28;100.00
13434;BME280;6789;47.678;9.158;2023-04-28T05:52:50;96516.03;;;11.33;100.00
13434;BME280;6789;47.678;9.158;2023-04-28T05:57:50;96511.22;;;11.41;100.00
13434;BME280;6789;47.678;9.158;2023-04-28T06:02:44;96528.03;;;11.68;100.00
13434;BME280;6789;47.678;9.158;2023-04-28T06:07:40;96533.69;;;11.76;100.00
13434;BME280;6789;47.678;9.158;2023-04-28T06:12:46;96545.94;;;11.99;100.00
13434;BME280;6789;47.678;9.158;2023-04-28T06:17:39;96557.06;;;11.89;100.00
13434;BME280;6789;47.678;9.158;2023-04-28T06:22:44;96558.75;;;11.95;100.00
13434;BME280;6789;47.678;9.158;2023-04-28T06:27:39;96559.78;;;11.94;100.00
13434;BME280;6789;47.678;9.158;2023-04-28T06:32:32;96573.03;;;11.99;100.00
13434;BME280;6789;47.678;9.158;2023-04-28T06:37:42;96567.22;;;12.13;100.00
13434;BME280;6789;47.678;9.158;2023-04-28T06:42:42;96550.91;;;12.28;100.00
13434;BME280;6789;47.678;9.158;2023-04-28T06:47:35;96550.09;;;12.44;100.00
13434;BME280;6789;47.678;9.158;2023-04-28T06:52:28;96542.44;;;12.59;100.00
13434;BME280;6789;47.678;9.158;2023-04-28T06:57:31;96556.31;;;12.54;100.00
13434;BME280;6789;47.678;9.158;2023-04-28T07:02:25;96555.66;;;12.64;100.00
13434;BME280;6789;47.678;9.158;2023-04-28T07:07:21;96547.06;;;12.68;100.00
13434;BME280;6789;47.678;9.158;2023-04-28T07:12:16;96552.44;;;12.78;100.00
13434;BME280;6789;47.678;9.158;2023-04-28T07:17:23;96547.50;;;12.81;100.00
13434;BME280;6789;47.678;9.158;2023-04-28T07:22:29;96555.59;;;12.91;100.00
13434;BME280;6789;47.678;9.158;2023-04-28T07:27:36;96547.19;;;12.94;100.00
13434;BME280;6789;47.678;9.158;2023-04-28T07:32:28;96557.56;;;13.01;100.00
13434;BME280;6789;47.678;9.158;2023-04-28T07:37:28;96549.22;;;13.09;100.00
13434;BME280;6789;47.678;9.158;2023-04-28T07:42:28;96546.47;;;13.20;100.00
13434;BME280;6789;47.678;9.158;2023-04-28T07:47:34;96556.22;;;13.20;100.00
13434;BME280;6789;47.678;9.158;2023-04-28T07:52:33;96573.84;;;13.19;100.00
13434;BME280;6789;47.678;9.158;2023-04-28T07:57:29;96605.88;;;13.11;100.00
13434;BME280;6789;47.678;9.158;2023-04-28T08:02:23;96594.16;;;13.02;100.00
13434;BME280;6789;47.678;9.158;2023-04-28T08:07:24;96597.03;;;13.01;100.00
13434;BME280;6789;47.678;9.158;2023-04-28T08:12:19;96573.50;;;12.94;100.00
13434;BME280;6789;47.678;9.158;2023-04-28T08:17:11;96577.19;;;12.93;100.00
13434;BME280;6789;47.678;9.158;2023-04-28T08:22:07;96605.56;;;13.08;100.00
13434;BME280;6789;47.678;9.158;2023-04-28T08:27:01;96593.44;;;13.07;100.00
13434;BME280;6789;47.678;9.158;2023-04-28T08:31:56;96588.00;;;13.13;100.00
13434;BME280;6789;47.678;9.158;2023-04-28T08:36:48;96587.53;;;13.16;100.00
13434;BME280;6789;47.678;9.158;2023-04-28T08:41:51;96579.88;;;13.36;100.00
13434;BME280;6789;47.678;9.158;2023-04-28T08:47:00;96577.66;;;13.50;100.00
13434;BME280;6789;47.678;9.158;2023-04-28T08:52:13;96595.91;;;13.56;100.00
13434;BME280;6789;47.678;9.158;2023-04-28T08:57:14;96616.56;;;13.64;100.00
13434;BME280;6789;47.678;9.158;2023-04-28T09:02:20;96628.34;;;13.78;100.00
13434;BME280;6789;47.678;9.158;2023-04-28T09:07:13;96620.28;;;14.11;100.00
13434;BME280;6789;47.678;9.158;2023-04-28T09:12:06;96626.91;;;14.39;100.00
13434;BME280;6789;47.678;9.158;2023-04-28T09:17:00;96637.13;;;14.62;100.00
13434;BME280;6789;47.678;9.158;2023-04-28T09:22:06;96637.59;;;14.54;100.00
13434;BME280;6789;47.678;9.158;2023-04-28T09:27:27;96646.97;;;14.72;100.00
13434;BME280;6789;47.678;9.158;2023-04-28T09:32:22;96651.97;;;14.68;100.00
13434;BME280;6789;47.678;9.158;2023-04-28T09:37:23;96653.69;;;14.53;100.00
13434;BME280;6789;47.678;9.158;2023-04-28T09:47:44;96663.28;;;14.37;100.00
13434;BME280;6789;47.678;9.158;2023-04-28T09:52:38;96661.78;;;14.20;100.00
13434;BME280;6789;47.678;9.158;2023-04-28T09:57:54;96650.88;;;14.12;100.00
13434;BME280;6789;47.678;9.158;2023-04-28T10:02:49;96646.44;;;14.12;100.00
13434;BME280;6789;47.678;9.158;2023-04-28T10:07:56;96655.00;;;14.03;100.00
13434;BME280;6789;47.678;9.158;2023-04-28T10:13:23;96649.09;;;13.96;100.00
13434;BME280;6789;47.678;9.158;2023-04-28T10:18:17;96649.53;;;13.88;100.00
13434;BME280;6789;47.678;9.158;2023-04-28T10:28:50;96637.06;;;14.05;100.00
13434;BME280;6789;47.678;9.158;2023-04-28T10:34:25;96644.44;;;14.24;100.00
13434;BME280;6789;47.678;9.158;2023-04-28T10:39:33;96639.88;;;14.46;100.00
13434;BME280;6789;47.678;9.158;2023-04-28T10:55:34;96649.03;;;15.32;100.00
13434;BME280;6789;47.678;9.158;2023-04-28T11:00:47;96641.78;;;15.54;100.00
13434;BME280;6789;47.678;9.158;2023-04-28T11:06:29;96653.50;;;15.73;100.00
13434;BME280;6789;47.678;9.158;2023-04-28T11:17:10;96651.81;;;15.57;100.00
13434;BME280;6789;47.678;9.158;2023-04-28T11:22:20;96657.22;;;15.31;100.00
13434;BME280;6789;47.678;9.158;2023-04-28T11:27:26;96646.50;;;15.11;100.00
13434;BME280;6789;47.678;9.158;2023-04-28T11:32:34;96649.38;;;15.09;100.00
13434;BME280;6789;47.678;9.158;2023-04-28T11:37:41;96652.31;;;15.13;100.00
13434;BME280;6789;47.678;9.158;2023-04-28T11:42:35;96659.22;;;15.19;100.00
13434;BME280;6789;47.678;9.158;2023-04-28T11:47:33;96651.47;;;15.07;100.00
13434;BME280;6789;47.678;9.158;2023-04-28T11:52:49;96647.31;;;15.11;100.00
13434;BME280;6789;47.678;9.158;2023-04-28T11:58:21;96638.03;;;15.09;100.00
13434;BME280;6789;47.678;9.158;2023-04-28T12:03:29;96633.72;;;15.29;100.00
13434;BME280;6789;47.678;9.158;2023-04-28T12:08:29;96639.19;;;15.69;100.00
13434;BME280;6789;47.678;9.158;2023-04-28T12:13:24;96639.34;;;16.09;100.00
13434;BME280;6789;47.678;9.158;2023-04-28T12:18:31;96641.34;;;16.58;100.00
13434;BME280;6789;47.678;9.158;2023-04-28T12:23:32;96649.28;;;16.58;100.00
13434;BME280;6789;47.678;9.158;2023-04-28T12:28:39;96650.88;;;16.84;100.00
13434;BME280;6789;47.678;9.158;2023-04-28T12:33:34;96640.28;;;17.38;100.00
13434;BME280;6789;47.678;9.158;2023-04-28T12:38:48;96636.16;;;17.86;98.69
13434;BME280;6789;47.678;9.158;2023-04-28T12:43:47;96616.50;;;18.40;97.63
13434;BME280;6789;47.678;9.158;2023-04-28T12:48:53;96634.00;;;18.84;91.81
13434;BME280;6789;47.678;9.158;2023-04-28T12:53:58;96639.16;;;18.65;91.19
13434;BME280;6789;47.678;9.158;2023-04-28T12:58:50;96629.03;;;18.72;91.73
13434;BME280;6789;47.678;9.158;2023-04-28T13:03:42;96635.41;;;18.71;91.42
13434;BME280;6789;47.678;9.158;2023-04-28T13:08:35;96630.16;;;18.62;90.72
13434;BME280;6789;47.678;9.158;2023-04-28T13:13:27;96626.13;;;18.69;91.23
13434;BME280;6789;47.678;9.158;2023-04-28T13:18:33;96626.50;;;18.53;92.68
13434;BME280;6789;47.678;9.158;2023-04-28T13:23:28;96612.25;;;18.39;93.36
13434;BME280;6789;47.678;9.158;2023-04-28T13:28:34;96593.88;;;18.47;94.34
13434;BME280;6789;47.678;9.158;2023-04-28T13:33:40;96588.81;;;18.51;93.74
13434;BME280;6789;47.678;9.158;2023-04-28T13:38:34;96598.34;;;18.57;92.62
13434;BME280;6789;47.678;9.158;2023-04-28T13:43:26;96585.91;;;18.80;93.33
13434;BME280;6789;47.678;9.158;2023-04-28T13:48:18;96588.16;;;18.97;93.45
13434;BME280;6789;47.678;9.158;2023-04-28T13:53:22;96594.41;;;19.16;91.82
13434;BME280;6789;47.678;9.158;2023-04-28T13:58:16;96583.34;;;18.99;92.09
13434;BME280;6789;47.678;9.158;2023-04-28T14:03:07;96568.16;;;19.33;91.62
13434;BME280;6789;47.678;9.158;2023-04-28T14:08:05;96559.06;;;19.80;88.44
13434;BME280;6789;47.678;9.158;2023-04-28T14:13:11;96563.78;;;20.07;85.94
13434;BME280;6789;47.678;9.158;2023-04-28T14:18:03;96546.44;;;20.27;82.64
13434;BME280;6789;47.678;9.158;2023-04-28T14:22:55;96555.44;;;19.95;81.86
13434;BME280;6789;47.678;9.158;2023-04-28T14:27:51;96547.44;;;19.01;86.63
13434;BME280;6789;47.678;9.158;2023-04-28T14:32:57;96533.41;;;18.96;87.53
13434;BME280;6789;47.678;9.158;2023-04-28T14:37:54;96539.91;;;18.52;88.21
13434;BME280;6789;47.678;9.158;2023-04-28T14:43:01;96553.59;;;18.68;88.97
13434;BME280;6789;47.678;9.158;2023-04-28T14:48:10;96550.63;;;18.42;89.84
13434;BME280;6789;47.678;9.158;2023-04-28T14:53:07;96532.88;;;18.65;91.56
13434;BME280;6789;47.678;9.158;2023-04-28T14:58:07;96528.09;;;18.67;92.76
13434;BME280;6789;47.678;9.158;2023-04-28T15:03:15;96523.06;;;18.66;93.12
13434;BME280;6789;47.678;9.158;2023-04-28T15:08:24;96506.25;;;18.75;93.76
13434;BME280;6789;47.678;9.158;2023-04-28T15:13:24;96522.91;;;18.81;94.46
13434;BME280;6789;47.678;9.158;2023-04-28T15:18:34;96522.88;;;19.14;92.69
13434;BME280;6789;47.678;9.158;2023-04-28T15:23:30;96500.28;;;19.35;91.62
13434;BME280;6789;47.678;9.158;2023-04-28T15:28:40;96497.09;;;18.58;88.50
13434;BME280;6789;47.678;9.158;2023-04-28T15:33:34;96500.28;;;18.27;91.84
13434;BME280;6789;47.678;9.158;2023-04-28T15:38:40;96499.69;;;17.96;90.25
13434;BME280;6789;47.678;9.158;2023-04-28T15:43:47;96506.63;;;17.44;92.56
13434;BME280;6789;47.678;9.158;2023-04-28T15:48:42;96497.81;;;17.49;94.06
13434;BME280;6789;47.678;9.158;2023-04-28T15:53:59;96480.63;;;17.41;95.29
13434;BME280;6789;47.678;9.158;2023-04-28T15:58:59;96471.41;;;17.82;95.12
13434;BME280;6789;47.678;9.158;2023-04-28T16:04:08;96461.53;;;18.26;95.00
13434;BME280;6789;47.678;9.158;2023-04-28T16:09:03;96455.50;;;18.49;95.31
13434;BME280;6789;47.678;9.158;2023-04-28T16:14:09;96464.38;;;18.63;94.93
13434;BME280;6789;47.678;9.158;2023-04-28T16:19:06;96450.06;;;18.59;95.67
13434;BME280;6789;47.678;9.158;2023-04-28T16:24:15;96445.88;;;18.53;95.61
13434;BME280;6789;47.678;9.158;2023-04-28T16:29:32;96447.53;;;18.49;96.04
13434;BME280;6789;47.678;9.158;2023-04-28T16:34:38;96450.94;;;18.26;96.04
13434;BME280;6789;47.678;9.158;2023-04-28T16:39:32;96453.09;;;18.14;97.03
13434;BME280;6789;47.678;9.158;2023-04-28T16:44:27;96454.47;;;18.06;97.88
13434;BME280;6789;47.678;9.158;2023-04-28T16:49:35;96455.94;;;17.89;98.44
13434;BME280;6789;47.678;9.158;2023-04-28T16:55:08;96439.22;;;17.88;99.16
13434;BME280;6789;47.678;9.158;2023-04-28T17:00:15;96432.53;;;18.01;100.00
13434;BME280;6789;47.678;9.158;2023-04-28T17:05:22;96420.22;;;18.10;100.00
13434;BME280;6789;47.678;9.158;2023-04-28T17:10:28;96417.03;;;18.08;100.00
13434;BME280;6789;47.678;9.158;2023-04-28T17:15:34;96433.63;;;17.95;100.00
13434;BME280;6789;47.678;9.158;2023-04-28T17:20:41;96454.88;;;17.90;100.00
13434;BME280;6789;47.678;9.158;2023-04-28T17:25:36;96439.69;;;17.62;100.00
13434;BME280;6789;47.678;9.158;2023-04-28T17:30:37;96442.66;;;17.51;100.00
13434;BME280;6789;47.678;9.158;2023-04-28T17:35:32;96439.28;;;17.40;100.00
13434;BME280;6789;47.678;9.158;2023-04-28T17:40:26;96450.16;;;17.39;100.00
13434;BME280;6789;47.678;9.158;2023-04-28T17:45:18;96455.47;;;17.24;100.00
13434;BME280;6789;47.678;9.158;2023-04-28T17:50:10;96453.66;;;17.14;100.00
13434;BME280;6789;47.678;9.158;2023-04-28T17:55:17;96451.59;;;17.12;100.00
13434;BME280;6789;47.678;9.158;2023-04-28T18:00:24;96446.84;;;16.99;100.00
13434;BME280;6789;47.678;9.158;2023-04-28T18:05:21;96460.66;;;16.96;100.00
13434;BME280;6789;47.678;9.158;2023-04-28T18:10:26;96459.09;;;16.80;100.00
13434;BME280;6789;47.678;9.158;2023-04-28T18:15:23;96462.31;;;16.67;100.00
13434;BME280;6789;47.678;9.158;2023-04-28T18:20:15;96466.84;;;16.61;100.00
13434;BME280;6789;47.678;9.158;2023-04-28T18:25:09;96474.28;;;16.54;100.00
13434;BME280;6789;47.678;9.158;2023-04-28T18:30:02;96472.94;;;16.47;100.00
13434;BME280;6789;47.678;9.158;2023-04-28T18:34:55;96479.84;;;16.38;100.00
13434;BME280;6789;47.678;9.158;2023-04-28T18:39:55;96468.72;;;16.31;100.00
13434;BME280;6789;47.678;9.158;2023-04-28T18:44:53;96478.78;;;16.29;100.00
13434;BME280;6789;47.678;9.158;2023-04-28T18:49:44;96476.09;;;16.24;100.00
13434;BME280;6789;47.678;9.158;2023-04-28T18:54:52;96477.16;;;16.13;100.00
13434;BME280;6789;47.678;9.158;2023-04-28T18:59:58;96478.22;;;16.07;100.00
13434;BME280;6789;47.678;9.158;2023-04-28T19:04:51;96494.06;;;15.92;100.00
13434;BME280;6789;47.678;9.158;2023-04-28T19:09:44;96493.00;;;15.78;100.00
13434;BME280;6789;47.678;9.158;2023-04-28T19:14:36;96498.81;;;15.66;100.00
13434;BME280;6789;47.678;9.158;2023-04-28T19:19:29;96502.22;;;15.56;100.00
13434;BME280;6789;47.678;9.158;2023-04-28T19:24:34;96504.31;;;15.49;100.00
13434;BME280;6789;47.678;9.158;2023-04-28T19:29:31;96509.53;;;15.39;100.00
13434;BME280;6789;47.678;9.158;2023-04-28T19:34:38;96502.66;;;15.28;100.00
13434;BME280;6789;47.678;9.158;2023-04-28T19:39:44;96501.03;;;15.22;100.00
13434;BME280;6789;47.678;9.158;2023-04-28T19:44:55;96513.75;;;15.30;100.00
13434;BME280;6789;47.678;9.158;2023-04-28T19:49:59;96513.94;;;15.19;100.00
13434;BME280;6789;47.678;9.158;2023-04-28T19:54:55;96517.31;;;15.09;100.00
13434;BME280;6789;47.678;9.158;2023-04-28T20:00:00;96519.66;;;15.01;100.00
13434;BME280;6789;47.678;9.158;2023-04-28T20:04:53;96521.47;;;14.96;100.00
13434;BME280;6789;47.678;9.158;2023-04-28T20:09:51;96516.63;;;14.83;100.00
13434;BME280;6789;47.678;9.158;2023-04-28T20:14:47;96504.22;;;14.78;100.00
13434;BME280;6789;47.678;9.158;2023-04-28T20:19:43;96498.28;;;14.61;100.00
13434;BME280;6789;47.678;9.158;2023-04-28T20:24:35;96508.06;;;14.61;100.00
13434;BME280;6789;47.678;9.158;2023-04-28T20:29:29;96486.94;;;14.56;100.00
13434;BME280;6789;47.678;9.158;2023-04-28T20:34:26;96495.06;;;14.49;100.00
13434;BME280;6789;47.678;9.158;2023-04-28T20:39:35;96501.88;;;14.40;100.00
13434;BME280;6789;47.678;9.158;2023-04-28T20:44:27;96495.91;;;14.24;100.00
13434;BME280;6789;47.678;9.158;2023-04-28T20:49:19;96489.78;;;14.13;100.00
13434;BME280;6789;47.678;9.158;2023-04-28T20:54:12;96486.28;;;14.08;100.00
13434;BME280;6789;47.678;9.158;2023-04-28T20:59:19;96481.31;;;14.11;100.00
13434;BME280;6789;47.678;9.158;2023-04-28T21:04:24;96481.00;;;14.08;100.00
13434;BME280;6789;47.678;9.158;2023-04-28T21:09:30;96485.78;;;14.11;100.00
13434;BME280;6789;47.678;9.158;2023-04-28T21:14:24;96485.22;;;14.09;100.00
13434;BME280;6789;47.678;9.158;2023-04-28T21:19:31;96490.56;;;14.14;100.00
13434;BME280;6789;47.678;9.158;2023-04-28T21:24:24;96488.19;;;14.12;100.00
13434;BME280;6789;47.678;9.158;2023-04-28T21:29:18;96491.47;;;13.98;100.00
13434;BME280;6789;47.678;9.158;2023-04-28T21:34:10;96477.53;;;13.76;100.00
13434;BME280;6789;47.678;9.158;2023-04-28T21:39:03;96479.09;;;13.72;100.00
13434;BME280;6789;47.678;9.158;2023-04-28T21:44:10;96478.25;;;13.66;100.00
13434;BME280;6789;47.678;9.158;2023-04-28T21:49:17;96474.53;;;13.62;100.00
13434;BME280;6789;47.678;9.158;2023-04-28T21:54:11;96463.28;;;13.72;100.00
13434;BME280;6789;47.678;9.158;2023-04-28T21:59:04;96467.81;;;13.76;100.00
13434;BME280;6789;47.678;9.158;2023-04-28T22:04:04;96478.34;;;13.76;100.00
13434;BME280;6789;47.678;9.158;2023-04-28T22:09:00;96481.44;;;13.68;100.00
13434;BME280;6789;47.678;9.158;2023-04-28T22:13:57;96480.63;;;13.68;100.00
13434;BME280;6789;47.678;9.158;2023-04-28T22:18:50;96477.00;;;13.74;100.00
13434;BME280;6789;47.678;9.158;2023-04-28T22:24:06;96474.44;;;13.79;100.00
13434;BME280;6789;47.678;9.158;2023-04-28T22:28:59;96460.69;;;13.77;100.00
13434;BME280;6789;47.678;9.158;2023-04-28T22:33:56;96461.72;;;13.76;100.00
13434;BME280;6789;47.678;9.158;2023-04-28T22:38:48;96461.25;;;13.79;100.00
13434;BME280;6789;47.678;9.158;2023-04-28T22:43:40;96447.59;;;13.87;100.00
13434;BME280;6789;47.678;9.158;2023-04-28T22:48:31;96451.50;;;13.79;100.00
13434;BME280;6789;47.678;9.158;2023-04-28T22:53:38;96456.16;;;13.72;100.00
13434;BME280;6789;47.678;9.158;2023-04-28T22:58:35;96455.91;;;13.74;100.00
13434;BME280;6789;47.678;9.158;2023-04-28T23:03:41;96448.28;;;13.77;100.00
13434;BME280;6789;47.678;9.158;2023-04-28T23:08:34;96458.34;;;13.80;100.00
13434;BME280;6789;47.678;9.158;2023-04-28T23:13:26;96470.78;;;13.85;100.00
13434;BME280;6789;47.678;9.158;2023-04-28T23:18:32;96457.66;;;13.90;100.00
13434;BME280;6789;47.678;9.158;2023-04-28T23:23:26;96463.34;;;13.77;100.00
13434;BME280;6789;47.678;9.158;2023-04-28T23:28:18;96452.78;;;13.77;100.00
13434;BME280;6789;47.678;9.158;2023-04-28T23:33:15;96455.16;;;13.78;100.00
13434;BME280;6789;47.678;9.158;2023-04-28T23:38:32;96448.09;;;13.84;100.00
13434;BME280;6789;47.678;9.158;2023-04-28T23:43:45;96450.78;;;13.89;100.00
13434;BME280;6789;47.678;9.158;2023-04-28T23:48:54;96448.72;;;13.96;100.00
13434;BME280;6789;47.678;9.158;2023-04-28T23:54:11;96454.56;;;13.98;100.00
13434;BME280;6789;47.678;9.158;2023-04-28T23:59:03;96455.38;;;14.03;100.00
